Aviation Digital Data Service (ADDS)

Output produced by METARs form (1929 UTC 27 May 2017)
found at http://aviationweather.gov/adds/metars/
 
KINT 271720Z 2718/2818 24011KT P6SM SCT080 
     FM272000 24010KT P6SM VCTS BKN050CB 
     FM280500 25005KT P6SM SCT080